createdAt,value
2018-05-12T00:02:15.903Z,99.90
2018-05-12T00:04:43.373Z,99.90
2018-05-12T00:07:11.607Z,99.90
2018-05-12T00:09:39.078Z,99.90
2018-05-12T00:12:06.553Z,99.90
2018-05-12T00:14:34.047Z,99.90
2018-05-12T00:17:02.290Z,99.90
2018-05-12T00:19:29.759Z,99.90
2018-05-12T00:21:57.222Z,99.90
2018-05-12T00:24:24.689Z,99.90
2018-05-12T00:26:52.170Z,99.90
2018-05-12T00:29:19.641Z,99.90
2018-05-12T00:31:47.894Z,99.90
2018-05-12T00:34:15.370Z,99.90
2018-05-12T00:36:42.847Z,99.90
2018-05-12T00:39:10.306Z,99.90
2018-05-12T00:41:37.773Z,99.90
2018-05-12T00:44:05.257Z,99.90
2018-05-12T00:46:33.489Z,99.90
2018-05-12T00:49:00.981Z,99.90
2018-05-12T00:51:28.449Z,99.90
2018-05-12T00:53:56.683Z,99.90
2018-05-12T00:56:24.165Z,99.90
2018-05-12T00:58:51.660Z,99.90
2018-05-12T01:01:19.877Z,99.90
2018-05-12T01:03:47.352Z,99.90
2018-05-12T01:06:14.821Z,99.90
2018-05-12T01:08:42.332Z,99.90
2018-05-12T01:11:09.801Z,99.90
2018-05-12T01:13:38.092Z,99.90
2018-05-12T01:16:05.513Z,99.90
2018-05-12T01:18:32.983Z,99.90
2018-05-12T01:21:00.476Z,99.90
2018-05-12T01:23:28.709Z,99.90
2018-05-12T01:25:56.187Z,99.90
2018-05-12T01:28:23.661Z,99.90
2018-05-12T01:30:51.144Z,99.90
2018-05-12T01:33:19.398Z,99.90
2018-05-12T01:35:46.873Z,99.90
2018-05-12T01:38:14.345Z,99.90
2018-05-12T01:40:41.817Z,99.90
2018-05-12T01:43:10.043Z,99.90
2018-05-12T01:45:37.535Z,99.90
2018-05-12T01:48:05.011Z,99.90
2018-05-12T01:50:32.477Z,99.90
2018-05-12T01:52:59.951Z,99.90
2018-05-12T01:55:28.191Z,99.90
2018-05-12T01:57:56.500Z,99.90
2018-05-12T02:00:23.933Z,99.90
2018-05-12T02:02:51.418Z,99.90
2018-05-12T02:05:18.897Z,99.90
2018-05-12T02:07:46.393Z,99.90
2018-05-12T02:10:13.882Z,99.90
2018-05-12T02:12:41.360Z,99.90
2018-05-12T02:15:08.829Z,99.90
2018-05-12T02:17:36.318Z,99.90
2018-05-12T02:20:03.801Z,99.90
2018-05-12T02:22:32.054Z,99.90
2018-05-12T02:24:59.524Z,99.90
2018-05-12T02:27:27.003Z,99.90
2018-05-12T02:29:55.248Z,99.90
2018-05-12T02:32:22.720Z,99.90
2018-05-12T02:34:50.224Z,99.90
2018-05-12T02:37:18.480Z,99.90
2018-05-12T02:39:45.950Z,99.90
2018-05-12T02:42:14.186Z,99.90
2018-05-12T02:44:41.670Z,99.90
2018-05-12T02:47:09.154Z,99.90
2018-05-12T02:49:36.629Z,99.90
2018-05-12T02:52:04.879Z,99.90
2018-05-12T02:54:32.356Z,99.90
2018-05-12T02:56:59.824Z,99.90
2018-05-12T02:59:27.317Z,99.90
2018-05-12T03:01:54.793Z,99.90
2018-05-12T03:04:22.277Z,99.90
2018-05-12T03:06:49.751Z,99.90
2018-05-12T03:09:17.222Z,99.90
2018-05-12T03:11:44.706Z,99.90
2018-05-12T03:14:12.179Z,99.90
2018-05-12T03:16:40.418Z,99.90
2018-05-12T03:19:07.880Z,99.90
2018-05-12T03:21:35.353Z,99.90
2018-05-12T03:24:02.834Z,99.90
2018-05-12T03:26:30.318Z,99.90
2018-05-12T03:28:58.560Z,99.90
2018-05-12T03:31:26.023Z,99.90
2018-05-12T03:33:53.483Z,99.90
2018-05-12T03:36:20.961Z,99.90
2018-05-12T03:38:48.426Z,99.90
2018-05-12T03:41:15.906Z,99.90
2018-05-12T03:43:43.373Z,99.90
2018-05-12T03:46:10.841Z,99.90
2018-05-12T03:48:39.094Z,99.90
2018-05-12T03:51:06.561Z,99.90
2018-05-12T03:53:34.066Z,99.90
2018-05-12T03:56:01.533Z,99.90
2018-05-12T03:58:29.771Z,99.90
2018-05-12T04:00:57.250Z,99.90
2018-05-12T04:03:24.724Z,99.90
2018-05-12T04:06:04.729Z,99.90
2018-05-12T04:08:44.155Z,99.90
2018-05-12T04:11:23.583Z,99.90
2018-05-12T04:13:51.054Z,99.90
2018-05-12T04:16:18.533Z,99.90
2018-05-12T04:18:46.004Z,99.90
2018-05-12T04:21:13.478Z,99.90
2018-05-12T04:23:40.975Z,99.90
2018-05-12T04:26:09.207Z,99.90
2018-05-12T04:28:36.673Z,99.90
2018-05-12T04:31:04.154Z,99.90
2018-05-12T04:33:31.609Z,99.90
2018-05-12T04:35:59.114Z,99.90
2018-05-12T04:38:27.346Z,99.90
2018-05-12T04:40:54.826Z,99.90
2018-05-12T04:43:22.403Z,99.90
2018-05-12T04:45:50.565Z,99.90
2018-05-12T04:48:18.059Z,99.90
2018-05-12T04:50:46.293Z,99.90
2018-05-12T04:53:13.768Z,99.90
2018-05-12T04:55:41.236Z,99.90
2018-05-12T04:58:08.710Z,99.90
2018-05-12T05:00:36.208Z,99.90
2018-05-12T05:03:04.451Z,99.90
2018-05-12T05:05:31.940Z,99.90
2018-05-12T05:08:00.173Z,99.90
2018-05-12T05:10:27.649Z,99.90
2018-05-12T05:12:55.137Z,99.90
2018-05-12T05:15:22.620Z,99.90
2018-05-12T05:17:50.852Z,99.90
2018-05-12T05:20:18.353Z,99.90
2018-05-12T05:22:46.584Z,99.90
2018-05-12T05:25:14.090Z,99.90
2018-05-12T05:27:41.581Z,99.90
2018-05-12T05:30:09.808Z,99.90
2018-05-12T05:32:37.281Z,99.90
2018-05-12T05:35:04.750Z,99.90
2018-05-12T05:37:32.235Z,99.90
2018-05-12T05:39:59.706Z,99.90
2018-05-12T05:42:27.932Z,99.90
2018-05-12T05:44:55.406Z,99.90
2018-05-12T05:47:22.872Z,99.90
2018-05-12T05:49:50.357Z,99.90
2018-05-12T05:52:17.847Z,99.90
2018-05-12T05:54:46.074Z,99.90
2018-05-12T05:57:13.541Z,99.90
2018-05-12T05:59:41.014Z,99.90
2018-05-12T06:02:08.499Z,99.90
2018-05-12T06:04:35.977Z,99.90
2018-05-12T06:07:04.280Z,99.80
2018-05-12T06:09:31.707Z,99.80
2018-05-12T06:11:59.181Z,99.60
2018-05-12T06:14:26.683Z,99.30
2018-05-12T06:16:54.159Z,99.20
2018-05-12T06:19:21.622Z,99.20
2018-05-12T06:21:49.089Z,98.60
2018-05-12T06:24:16.560Z,98.80
2018-05-12T06:26:44.053Z,98.60
2018-05-12T06:29:11.533Z,98.70
2018-05-12T06:31:38.999Z,98.20
2018-05-12T06:34:07.228Z,97.90
2018-05-12T06:36:34.697Z,97.90
2018-05-12T06:39:02.190Z,98.20
2018-05-12T06:41:29.645Z,97.80
2018-05-12T06:43:57.109Z,97.50
2018-05-12T06:46:24.574Z,97.10
2018-05-12T06:48:52.041Z,97.00
2018-05-12T06:51:19.529Z,97.00
2018-05-12T06:53:47.767Z,96.80
2018-05-12T06:56:15.240Z,96.80
2018-05-12T06:58:42.715Z,96.60
2018-05-12T07:01:10.208Z,96.30
2018-05-12T07:03:38.469Z,95.60
2018-05-12T07:06:05.957Z,95.60
2018-05-12T07:08:34.179Z,95.20
2018-05-12T07:11:01.651Z,95.20
2018-05-12T07:13:29.119Z,95.30
2018-05-12T07:15:56.622Z,95.20
2018-05-12T07:18:24.848Z,95.10
2018-05-12T07:20:52.307Z,95.10
2018-05-12T07:23:19.775Z,95.00
2018-05-12T07:25:47.245Z,94.90
2018-05-12T07:28:14.745Z,94.70
2018-05-12T07:30:42.207Z,94.80
2018-05-12T07:33:09.682Z,94.70
2018-05-12T07:35:37.923Z,94.60
2018-05-12T07:38:05.383Z,94.60
2018-05-12T07:40:32.869Z,94.40
2018-05-12T07:43:00.333Z,93.80
2018-05-12T07:45:27.878Z,93.80
2018-05-12T07:47:56.033Z,93.70
2018-05-12T07:50:23.505Z,93.30
2018-05-12T07:52:51.001Z,93.70
2018-05-12T07:55:18.472Z,93.50
2018-05-12T07:57:45.949Z,93.30
2018-05-12T08:00:14.263Z,93.20
2018-05-12T08:02:42.439Z,93.10
2018-05-12T08:05:09.918Z,93.10
2018-05-12T08:07:37.387Z,93.00
2018-05-12T08:10:04.857Z,92.80
2018-05-12T08:12:32.328Z,92.40
2018-05-12T08:14:59.808Z,92.00
2018-05-12T08:17:27.289Z,92.10
2018-05-12T08:19:55.517Z,91.80
2018-05-12T08:22:22.993Z,91.60
2018-05-12T08:24:50.466Z,91.10
2018-05-12T08:27:17.931Z,91.40
2018-05-12T08:29:45.424Z,91.70
2018-05-12T08:32:12.890Z,91.70
2018-05-12T08:34:41.135Z,91.60
2018-05-12T08:37:08.612Z,91.50
2018-05-12T08:39:36.087Z,91.50
2018-05-12T08:42:03.657Z,91.30
2018-05-12T08:44:31.081Z,91.20
2018-05-12T08:46:58.549Z,91.20
2018-05-12T08:49:26.023Z,91.40
2018-05-12T08:51:53.499Z,91.20
2018-05-12T08:54:20.997Z,90.80
2018-05-12T08:56:49.234Z,91.10
2018-05-12T08:59:16.706Z,91.10
2018-05-12T09:01:44.179Z,90.90
2018-05-12T09:04:11.654Z,91.00
2018-05-12T09:06:39.910Z,90.30
2018-05-12T09:09:07.383Z,90.30
2018-05-12T09:11:34.868Z,90.40
2018-05-12T09:14:03.109Z,89.80
2018-05-12T09:16:30.577Z,89.80
2018-05-12T09:18:58.071Z,90.00
2018-05-12T09:21:25.538Z,88.80
2018-05-12T09:23:53.785Z,87.10
2018-05-12T09:26:21.258Z,87.10
2018-05-12T09:28:48.737Z,87.80
2018-05-12T09:31:16.228Z,87.40
2018-05-12T09:33:43.691Z,85.90
2018-05-12T09:36:11.178Z,86.10
2018-05-12T09:38:38.651Z,86.20
2018-05-12T09:41:06.119Z,86.70
2018-05-12T09:43:33.597Z,84.70
2018-05-12T09:46:01.060Z,82.80
2018-05-12T09:48:28.533Z,79.80
2018-05-12T09:50:55.998Z,77.50
2018-05-12T09:53:23.455Z,76.60
2018-05-12T09:55:50.921Z,76.40
2018-05-12T09:58:18.374Z,75.80
2018-05-12T10:00:45.833Z,72.60
2018-05-12T10:03:13.305Z,73.10
2018-05-12T10:05:40.765Z,74.20
2018-05-12T10:08:08.251Z,73.90
2018-05-12T10:10:35.722Z,72.70
2018-05-12T10:13:03.191Z,72.10
2018-05-12T10:15:31.438Z,75.00
2018-05-12T10:17:58.903Z,75.00
2018-05-12T10:20:26.397Z,74.10
2018-05-12T10:22:54.632Z,75.40
2018-05-12T10:25:22.108Z,75.30
2018-05-12T10:27:49.566Z,74.90
2018-05-12T10:30:17.040Z,75.40
2018-05-12T10:32:44.527Z,72.20
2018-05-12T10:35:11.988Z,73.10
2018-05-12T10:37:39.458Z,74.50
2018-05-12T10:40:06.928Z,75.50
2018-05-12T10:42:35.164Z,75.60
2018-05-12T10:45:02.638Z,75.60
2018-05-12T10:47:30.119Z,75.40
2018-05-12T10:49:57.581Z,75.80
2018-05-12T10:52:25.066Z,75.90
2018-05-12T10:54:53.300Z,72.30
2018-05-12T10:57:20.774Z,72.20
2018-05-12T10:59:48.244Z,73.50
2018-05-12T11:02:15.729Z,72.80
2018-05-12T11:04:43.191Z,72.70
2018-05-12T11:07:10.666Z,72.10
2018-05-12T11:09:38.977Z,70.00
2018-05-12T11:12:06.402Z,70.00
2018-05-12T11:14:33.866Z,71.10
2018-05-12T11:17:01.328Z,73.80
2018-05-12T11:19:28.796Z,72.50
2018-05-12T11:21:56.320Z,73.20
2018-05-12T11:24:23.762Z,72.90
2018-05-12T11:26:51.235Z,74.10
2018-05-12T11:29:18.698Z,70.90
2018-05-12T11:31:46.166Z,68.80
2018-05-12T11:34:13.661Z,69.80
2018-05-12T11:36:41.132Z,68.80
2018-05-12T11:39:08.602Z,67.10
2018-05-12T11:41:36.070Z,67.80
2018-05-12T11:44:03.533Z,67.40
2018-05-12T11:46:31.798Z,66.00
2018-05-12T11:49:00.062Z,66.50
2018-05-12T11:51:27.573Z,66.30
2018-05-12T11:53:54.983Z,64.30
2018-05-12T11:56:23.224Z,65.30
2018-05-12T11:58:51.475Z,64.50
2018-05-12T12:01:18.938Z,64.40
2018-05-12T12:03:46.520Z,63.40
2018-05-12T12:06:13.878Z,62.60
2018-05-12T12:08:42.111Z,67.50
2018-05-12T12:11:09.614Z,66.70
2018-05-12T12:13:37.075Z,66.30
2018-05-12T12:16:04.547Z,64.60
2018-05-12T12:18:32.006Z,65.30
2018-05-12T12:20:59.464Z,62.40
2018-05-12T12:23:26.960Z,62.20
2018-05-12T12:25:55.196Z,63.30
2018-05-12T12:28:22.660Z,63.40
2018-05-12T12:30:50.122Z,60.80
2018-05-12T12:33:17.650Z,62.80
2018-05-12T12:35:45.089Z,61.30
2018-05-12T12:38:13.330Z,60.20
2018-05-12T12:40:40.788Z,60.20
2018-05-12T12:43:08.261Z,59.50
2018-05-12T12:45:35.734Z,60.10
2018-05-12T12:48:03.204Z,59.90
2018-05-12T12:50:30.662Z,62.60
2018-05-12T12:52:58.131Z,59.10
2018-05-12T12:55:25.601Z,58.70
2018-05-12T12:57:53.080Z,61.20
2018-05-12T13:00:21.330Z,62.00
2018-05-12T13:02:48.804Z,62.00
2018-05-12T13:05:16.272Z,60.30
2018-05-12T13:07:43.724Z,59.80
2018-05-12T13:10:11.196Z,60.80
2018-05-12T13:12:38.691Z,60.80
2018-05-12T13:15:06.162Z,61.00
2018-05-12T13:17:33.628Z,62.00
2018-05-12T13:20:01.102Z,59.70
2018-05-12T13:22:28.570Z,59.20
2018-05-12T13:24:56.052Z,60.30
2018-05-12T13:27:23.516Z,60.50
2018-05-12T13:29:50.979Z,61.70
2018-05-12T13:32:18.449Z,59.20
2018-05-12T13:34:45.921Z,62.70
2018-05-12T13:37:13.435Z,63.40
2018-05-12T13:39:40.930Z,62.70
2018-05-12T13:42:08.390Z,62.40
2018-05-12T13:44:35.869Z,58.60
2018-05-12T13:47:03.328Z,62.50
2018-05-12T13:49:30.800Z,63.80
2018-05-12T13:51:58.264Z,60.20
2018-05-12T13:54:25.742Z,59.40
2018-05-12T13:56:53.294Z,62.10
2018-05-12T13:59:21.462Z,61.50
2018-05-12T14:01:48.939Z,61.50
2018-05-12T14:04:16.474Z,61.10
2018-05-12T14:06:43.965Z,59.30
2018-05-12T14:09:11.445Z,59.80
2018-05-12T14:11:38.921Z,58.50
2018-05-12T14:14:07.198Z,58.20
2018-05-12T14:16:34.674Z,58.20
2018-05-12T14:19:03.002Z,59.30
2018-05-12T14:21:30.395Z,59.30
2018-05-12T14:23:57.860Z,59.20
2018-05-12T14:26:25.337Z,62.50
2018-05-12T14:28:53.599Z,57.70
2018-05-12T14:31:21.069Z,57.70
2018-05-12T14:33:48.547Z,57.00
2018-05-12T14:36:16.777Z,56.00
2018-05-12T14:38:44.321Z,56.00
2018-05-12T14:41:11.795Z,55.40
2018-05-12T14:43:39.267Z,56.30
2018-05-12T14:46:06.813Z,56.80
2018-05-12T14:48:34.296Z,56.70
2018-05-12T14:51:01.800Z,58.20
2018-05-12T14:53:29.263Z,58.00
2018-05-12T14:55:56.724Z,57.80
2018-05-12T14:58:24.217Z,58.20
2018-05-12T15:00:51.695Z,58.80
2018-05-12T15:03:19.175Z,58.20
2018-05-12T15:05:46.682Z,58.80
2018-05-12T15:08:14.177Z,56.90
2018-05-12T15:10:41.618Z,55.90
2018-05-12T15:13:09.099Z,56.50
2018-05-12T15:15:37.357Z,53.50
2018-05-12T15:18:04.830Z,53.50
2018-05-12T15:20:32.315Z,53.60
2018-05-12T15:23:00.605Z,57.90
2018-05-12T15:59:13.609Z,85.50
2018-05-12T16:01:41.078Z,82.30
2018-05-12T16:04:08.553Z,83.00
2018-05-12T16:06:36.036Z,83.80
2018-05-12T16:09:04.335Z,78.50
2018-05-12T16:11:32.596Z,82.40
2018-05-12T16:14:00.906Z,79.80
2018-05-12T16:16:28.377Z,79.80
2018-05-12T16:18:56.085Z,79.40
2018-05-12T16:21:23.565Z,78.80
2018-05-12T16:23:51.060Z,79.20
2018-05-12T16:26:18.525Z,76.60
2018-05-12T16:28:45.991Z,75.50
2018-05-12T16:31:13.534Z,74.10
2018-05-12T16:33:40.951Z,73.40
2018-05-12T16:36:08.449Z,72.60
2018-05-12T16:38:35.917Z,72.10
2018-05-12T16:41:03.383Z,71.80
2018-05-12T16:43:30.853Z,71.20
2018-05-12T16:45:59.083Z,71.50
2018-05-12T16:48:26.600Z,71.50
2018-05-12T16:50:54.880Z,71.10
2018-05-12T16:53:22.326Z,71.10
2018-05-12T16:55:49.799Z,71.30
2018-05-12T16:58:17.265Z,71.80
2018-05-12T17:00:44.751Z,72.00
2018-05-12T17:03:12.221Z,73.00
2018-05-12T17:05:39.699Z,73.60
2018-05-12T17:08:07.172Z,74.30
2018-05-12T17:10:34.627Z,74.40
2018-05-12T17:13:02.121Z,75.50
2018-05-12T17:15:29.597Z,75.90
2018-05-12T17:17:57.081Z,76.10
2018-05-12T17:20:25.309Z,76.10
2018-05-12T17:22:52.801Z,76.10
2018-05-12T17:25:20.285Z,76.50
2018-05-12T17:27:47.753Z,74.90
2018-05-12T17:30:16.002Z,72.20
2018-05-12T17:32:43.486Z,72.20
2018-05-12T17:35:11.737Z,73.70
2018-05-12T17:37:39.213Z,73.80
2018-05-12T17:40:06.677Z,74.30
2018-05-12T17:42:34.137Z,75.50
2018-05-12T17:45:01.629Z,77.10
2018-05-12T17:47:29.091Z,78.30
2018-05-12T17:49:56.617Z,79.30
2018-05-12T17:52:24.051Z,79.40
2018-05-12T17:54:51.535Z,79.90
2018-05-12T17:57:18.998Z,80.20
2018-05-12T17:59:46.463Z,80.80
2018-05-12T18:02:13.958Z,81.80
2018-05-12T18:04:41.429Z,82.00
2018-05-12T18:07:08.895Z,82.70
2018-05-12T18:09:36.366Z,83.10
2018-05-12T18:12:03.834Z,83.80
2018-05-12T18:14:32.093Z,85.40
2018-05-12T18:16:59.559Z,85.30
2018-05-12T18:19:27.117Z,85.80
2018-05-12T18:21:54.581Z,86.60
2018-05-12T18:24:22.051Z,86.80
2018-05-12T18:26:49.538Z,87.40
2018-05-12T18:29:17.774Z,89.10
2018-05-12T18:31:45.242Z,88.20
2018-05-12T18:34:13.468Z,88.50
2018-05-12T18:36:41.709Z,88.90
2018-05-12T18:39:09.280Z,88.90
2018-05-12T18:41:36.793Z,88.90
2018-05-12T18:44:04.283Z,89.00
2018-05-12T18:46:31.753Z,89.70
2018-05-12T18:48:59.255Z,90.40
2018-05-12T18:51:26.748Z,90.60
2018-05-12T18:53:54.242Z,91.00
2018-05-12T18:56:21.705Z,91.40
2018-05-12T18:58:49.183Z,91.60
2018-05-12T19:01:16.639Z,91.70
2018-05-12T19:03:44.133Z,91.90
2018-05-12T19:06:11.607Z,92.00
2018-05-12T19:08:39.068Z,92.10
2018-05-12T19:11:06.529Z,92.30
2018-05-12T19:13:34.000Z,92.40
2018-05-12T19:16:01.499Z,92.80
2018-05-12T19:18:28.971Z,92.90
2018-05-12T19:20:56.455Z,93.00
2018-05-12T19:23:23.919Z,93.00
2018-05-12T19:25:51.386Z,93.50
2018-05-12T19:28:18.880Z,93.60
2018-05-12T19:30:46.375Z,93.60
2018-05-12T19:33:13.845Z,93.80
2018-05-12T19:35:41.324Z,93.90
2018-05-12T19:38:08.790Z,93.80
2018-05-12T19:40:36.289Z,93.90
2018-05-12T19:43:03.759Z,93.90
2018-05-12T19:45:31.235Z,94.20
2018-05-12T19:47:59.479Z,93.80
2018-05-12T19:50:26.955Z,93.80
2018-05-12T19:52:54.441Z,93.80
2018-05-12T19:55:21.945Z,94.00
2018-05-12T19:57:49.413Z,94.10
2018-05-12T20:00:16.914Z,93.90
2018-05-12T20:02:44.379Z,94.00
2018-05-12T20:05:11.871Z,93.90
2018-05-12T20:07:40.107Z,94.20
2018-05-12T20:10:07.581Z,94.20
2018-05-12T20:12:35.056Z,94.50
2018-05-12T20:15:02.520Z,94.50
2018-05-12T20:17:30.006Z,94.60
2018-05-12T20:19:58.257Z,94.90
2018-05-12T20:22:25.721Z,94.90
2018-05-12T20:24:53.192Z,95.20
2018-05-12T20:27:20.670Z,95.30
2018-05-12T20:29:48.950Z,95.10
2018-05-12T20:32:16.434Z,95.10
2018-05-12T20:34:44.675Z,95.30
2018-05-12T20:37:12.942Z,95.30
2018-05-12T20:39:40.406Z,95.30
2018-05-12T20:42:07.893Z,95.30
2018-05-12T20:44:35.389Z,95.30
2018-05-12T20:47:03.617Z,95.60
2018-05-12T20:49:31.092Z,95.60
2018-05-12T20:51:58.574Z,95.70
2018-05-12T20:54:26.079Z,95.60
2018-05-12T20:56:53.564Z,95.60
2018-05-12T20:59:21.032Z,95.50
2018-05-12T21:01:48.500Z,95.60
2018-05-12T21:04:15.996Z,95.40
2018-05-12T21:06:43.482Z,95.50
2018-05-12T21:09:10.953Z,95.50
2018-05-12T21:11:38.441Z,95.70
2018-05-12T21:14:05.915Z,96.30
2018-05-12T21:16:33.383Z,97.00
2018-05-12T21:19:00.868Z,97.40
2018-05-12T21:21:28.354Z,99.70
2018-05-12T21:23:56.702Z,99.90
2018-05-12T21:26:24.074Z,99.90
2018-05-12T21:28:51.569Z,99.90
2018-05-12T21:31:19.833Z,99.90
2018-05-12T21:33:47.298Z,99.90
2018-05-12T21:36:15.541Z,99.90
2018-05-12T21:38:43.021Z,99.90
2018-05-12T21:41:10.492Z,99.90
2018-05-12T21:43:37.967Z,99.90
2018-05-12T21:46:05.500Z,99.90
2018-05-12T21:48:33.663Z,99.90
2018-05-12T21:51:01.136Z,99.90
2018-05-12T21:53:28.614Z,99.90
2018-05-12T21:55:56.119Z,99.90
2018-05-12T21:58:24.357Z,99.90
2018-05-12T22:00:51.833Z,99.90
2018-05-12T22:03:19.286Z,99.90
2018-05-12T22:05:47.522Z,99.90
2018-05-12T22:08:15.026Z,99.90
2018-05-12T22:10:42.482Z,99.90
2018-05-12T22:13:09.945Z,99.90
2018-05-12T22:15:37.422Z,99.90
2018-05-12T22:18:04.884Z,99.90
2018-05-12T22:20:32.352Z,99.90
2018-05-12T22:22:59.814Z,99.90
2018-05-12T22:25:27.280Z,99.90
2018-05-12T22:27:54.748Z,99.90
2018-05-12T22:30:22.284Z,99.90
2018-05-12T22:32:49.742Z,99.90
2018-05-12T22:35:17.222Z,99.90
2018-05-12T22:37:44.686Z,99.90
2018-05-12T22:40:12.162Z,99.90
2018-05-12T22:42:40.399Z,99.90
2018-05-12T22:45:07.890Z,99.90
2018-05-12T22:47:35.358Z,99.90
2018-05-12T22:50:02.842Z,99.90
2018-05-12T22:52:30.312Z,99.90
2018-05-12T22:54:57.793Z,99.90
2018-05-12T22:57:25.268Z,99.90
2018-05-12T22:59:53.482Z,99.90
2018-05-12T23:02:20.938Z,99.90
2018-05-12T23:04:48.402Z,99.90
2018-05-12T23:07:15.889Z,99.90
2018-05-12T23:09:44.146Z,99.90
2018-05-12T23:12:11.703Z,99.90
2018-05-12T23:14:39.158Z,99.90
2018-05-12T23:17:06.628Z,99.90
2018-05-12T23:19:34.096Z,99.90
2018-05-12T23:22:01.592Z,99.90
2018-05-12T23:24:29.076Z,99.90
2018-05-12T23:26:56.536Z,99.90
2018-05-12T23:29:24.008Z,99.90
2018-05-12T23:31:51.481Z,99.90
2018-05-12T23:34:18.971Z,99.90
2018-05-12T23:36:46.430Z,99.90
2018-05-12T23:39:13.908Z,99.90
2018-05-12T23:41:41.376Z,99.90
2018-05-12T23:44:08.848Z,99.90
2018-05-12T23:46:36.318Z,99.90
2018-05-12T23:49:03.784Z,99.90
2018-05-12T23:51:31.262Z,99.90
2018-05-12T23:53:58.724Z,99.90
2018-05-12T23:56:26.185Z,99.90
2018-05-12T23:58:53.676Z,99.90
